createdAt,value
2022-08-12T00:02:02.093Z,95601.88
2022-08-12T00:04:41.659Z,95604.47
2022-08-12T00:07:46.916Z,95606.19
2022-08-12T00:10:38.561Z,95599.38
2022-08-12T00:13:42.906Z,95596.81
2022-08-12T00:16:34.453Z,95601.13
2022-08-12T00:19:39.915Z,95593.44
2022-08-12T00:22:39.192Z,95592.59
2022-08-12T00:26:21.783Z,95596.94
2022-08-12T00:29:26.915Z,95595.31
2022-08-12T00:32:35.928Z,95598.84
2022-08-12T00:35:37.057Z,95598.91
2022-08-12T00:38:48.935Z,95596.41
2022-08-12T00:41:54.944Z,95593.06
2022-08-12T00:44:36.937Z,95588.84
2022-08-12T00:47:31.926Z,95588.84
2022-08-12T00:50:25.929Z,95587.13
2022-08-12T00:53:00.065Z,95585.47
2022-08-12T00:55:57.917Z,95594.13
2022-08-12T00:58:52.941Z,95586.44
2022-08-12T01:01:28.056Z,95589.00
2022-08-12T01:04:55.770Z,95587.28
2022-08-12T01:07:50.014Z,95585.53
2022-08-12T01:10:56.951Z,95588.94
2022-08-12T01:13:37.956Z,95588.09
2022-08-12T01:16:33.988Z,95582.94
2022-08-12T01:19:27.955Z,95588.88
2022-08-12T01:22:44.014Z,95588.88
2022-08-12T01:25:55.757Z,95588.88
2022-08-12T01:28:45.956Z,95591.50
2022-08-12T01:31:22.044Z,95590.66
2022-08-12T01:34:35.692Z,95588.16
2022-08-12T01:37:11.442Z,95586.50
2022-08-12T01:40:35.492Z,95577.16
2022-08-12T01:43:05.000Z,95579.72
2022-08-12T01:46:20.951Z,95583.09
2022-08-12T01:49:21.717Z,95583.06
2022-08-12T01:52:21.440Z,95582.22
2022-08-12T01:55:09.973Z,95582.22
2022-08-12T01:57:59.821Z,95581.28
2022-08-12T02:00:58.014Z,95582.06
2022-08-12T02:04:04.998Z,95578.72
2022-08-12T02:07:09.985Z,95574.53
2022-08-12T02:10:51.285Z,95586.59
2022-08-12T02:13:48.906Z,95569.59
2022-08-12T02:17:04.994Z,95579.84
2022-08-12T02:20:08.974Z,95573.78
2022-08-12T02:22:58.987Z,95577.16
2022-08-12T02:25:34.198Z,95572.03
2022-08-12T02:28:20.984Z,95580.56
2022-08-12T02:30:54.068Z,95568.63
2022-08-12T02:33:42.001Z,95566.13
2022-08-12T02:36:16.501Z,95557.63
2022-08-12T02:39:03.995Z,95558.50
2022-08-12T02:41:45.985Z,95558.56
2022-08-12T02:44:43.983Z,95561.16
2022-08-12T02:47:59.835Z,95552.63
2022-08-12T02:50:54.002Z,95550.91
2022-08-12T02:53:27.969Z,95549.16
2022-08-12T02:56:21.996Z,95550.84
2022-08-12T02:59:16.978Z,95547.44
2022-08-12T03:02:11.004Z,95549.22
2022-08-12T03:04:57.258Z,95552.63
2022-08-12T03:07:59.268Z,95544.88
2022-08-12T03:10:47.006Z,95543.13
2022-08-12T03:13:49.029Z,95545.69
2022-08-12T03:16:39.995Z,95540.56
2022-08-12T03:19:14.110Z,95544.09
2022-08-12T03:22:09.164Z,95536.47
2022-08-12T03:24:45.277Z,95532.19
2022-08-12T03:27:34.037Z,95527.91
2022-08-12T03:30:07.098Z,95538.16
2022-08-12T03:32:56.023Z,95539.94
2022-08-12T03:35:43.004Z,95541.63
2022-08-12T03:38:36.009Z,95539.88
2022-08-12T03:41:43.050Z,95536.47
2022-08-12T03:45:10.016Z,95542.44
2022-08-12T03:48:21.022Z,95546.75
2022-08-12T03:51:22.864Z,95536.56
2022-08-12T03:54:29.031Z,95538.28
2022-08-12T03:57:28.018Z,95543.47
2022-08-12T04:00:31.035Z,95545.22
2022-08-12T04:03:38.013Z,95538.38
2022-08-12T04:06:11.109Z,95540.97
2022-08-12T04:09:00.030Z,95540.97
2022-08-12T04:11:54.038Z,95542.69
2022-08-12T04:14:43.033Z,95543.53
2022-08-12T04:17:16.260Z,95552.06
2022-08-12T04:20:04.037Z,95550.34
2022-08-12T04:22:38.446Z,95558.88
2022-08-12T04:25:26.046Z,95562.25
2022-08-12T04:28:11.357Z,95568.25
2022-08-12T04:31:08.088Z,95564.81
2022-08-12T04:33:55.048Z,95567.38
2022-08-12T04:36:28.144Z,95563.94
2022-08-12T04:39:16.076Z,95571.59
2022-08-12T04:41:58.208Z,95568.19
2022-08-12T04:44:45.058Z,95572.44
2022-08-12T04:47:20.135Z,95570.72
2022-08-12T04:50:26.936Z,95566.41
2022-08-12T04:53:09.330Z,95566.44
2022-08-12T04:56:03.047Z,95568.13
2022-08-12T04:58:52.697Z,95566.41
2022-08-12T05:01:38.043Z,95574.94
2022-08-12T05:04:33.053Z,95574.09
2022-08-12T05:07:21.067Z,95572.38
2022-08-12T05:09:59.334Z,95574.03
2022-08-12T05:12:53.067Z,95568.97
2022-08-12T05:15:33.065Z,95565.50
2022-08-12T05:18:31.054Z,95574.03
2022-08-12T05:21:18.067Z,95575.56
2022-08-12T05:23:51.154Z,95577.22
2022-08-12T05:26:38.074Z,95569.44
2022-08-12T05:30:05.661Z,95571.94
2022-08-12T05:32:27.071Z,95570.06
2022-08-12T05:35:13.063Z,95570.81
2022-08-12T05:38:25.062Z,95567.22
2022-08-12T05:41:27.089Z,95562.72
2022-08-12T05:44:17.083Z,95569.31
2022-08-12T05:46:50.154Z,95568.22
2022-08-12T05:49:37.098Z,95566.31
2022-08-12T05:52:17.083Z,95565.09
2022-08-12T05:55:06.059Z,95564.66
2022-08-12T05:57:39.166Z,95568.47
2022-08-12T06:00:27.086Z,95568.00
2022-08-12T06:03:03.150Z,95571.81
2022-08-12T06:05:54.849Z,95576.38
2022-08-12T06:08:30.178Z,95576.69
2022-08-12T06:11:17.080Z,95584.69
2022-08-12T06:13:53.965Z,95592.69
2022-08-12T06:16:42.108Z,95597.28
2022-08-12T06:19:16.148Z,95595.97
2022-08-12T06:22:03.109Z,95603.41
2022-08-12T06:24:36.162Z,95602.38
2022-08-12T06:27:25.089Z,95603.94
2022-08-12T06:30:07.273Z,95605.66
2022-08-12T06:33:20.927Z,95604.75
2022-08-12T06:36:15.108Z,95602.16
2022-08-12T06:39:14.673Z,95609.03
2022-08-12T06:42:42.109Z,95605.56
2022-08-12T06:45:22.096Z,95602.16
2022-08-12T06:48:03.133Z,95607.31
2022-08-12T06:50:57.111Z,95600.47
2022-08-12T06:53:46.092Z,95604.69
2022-08-12T06:56:19.321Z,95609.78
2022-08-12T06:59:06.093Z,95616.63
2022-08-12T07:01:39.309Z,95610.53
2022-08-12T07:04:36.763Z,95611.38
2022-08-12T07:07:13.203Z,95619.94
2022-08-12T07:10:05.937Z,95629.38
2022-08-12T07:12:41.411Z,95622.34
2022-08-12T07:15:24.130Z,95623.19
2022-08-12T07:18:27.114Z,95614.63
2022-08-12T07:21:02.650Z,95621.56
2022-08-12T07:23:50.137Z,95609.50
2022-08-12T07:26:23.198Z,95614.50
2022-08-12T07:29:13.128Z,95605.66
2022-08-12T07:31:47.207Z,95607.13
2022-08-12T07:34:34.147Z,95602.50
2022-08-12T07:37:07.230Z,95598.75
2022-08-12T07:40:00.310Z,95595.00
2022-08-12T07:42:35.251Z,95588.59
2022-08-12T07:45:22.131Z,95581.31
2022-08-12T07:47:55.674Z,95580.75
2022-08-12T07:50:42.161Z,95582.81
2022-08-12T07:53:15.247Z,95582.97
2022-08-12T07:56:09.165Z,95574.41
2022-08-12T07:59:06.123Z,95582.34
2022-08-12T08:01:53.200Z,95587.16
2022-08-12T08:04:44.774Z,95577.44
2022-08-12T08:07:36.149Z,95581.53
2022-08-12T08:10:13.781Z,95582.16
2022-08-12T08:13:00.166Z,95579.16
2022-08-12T08:18:43.154Z,95570.94
2022-08-12T08:21:17.804Z,95574.00
2022-08-12T08:24:22.165Z,95570.84
2022-08-12T08:26:58.999Z,95566.94
2022-08-12T08:29:46.162Z,95567.53
2022-08-12T08:32:26.176Z,95566.25
2022-08-12T08:35:15.160Z,95548.78
2022-08-12T08:37:55.156Z,95556.38
2022-08-12T08:41:13.174Z,95549.22
2022-08-12T08:44:20.142Z,95552.34
2022-08-12T08:47:02.166Z,95559.66
2022-08-12T08:49:49.151Z,95547.16
2022-08-12T08:52:39.075Z,95548.44
2022-08-12T08:55:42.468Z,95554.22
2022-08-12T08:58:28.192Z,95555.66
2022-08-12T09:01:18.582Z,95571.81
2022-08-12T09:05:10.123Z,95572.38
2022-08-12T09:07:17.837Z,95579.91
2022-08-12T09:10:23.312Z,95577.94
2022-08-12T09:14:10.654Z,95576.03
2022-08-12T09:16:46.182Z,95590.44
2022-08-12T09:22:29.246Z,95584.91
2022-08-12T09:25:09.508Z,95588.00
2022-08-12T09:28:06.220Z,95591.34
2022-08-12T09:30:53.218Z,95591.78
2022-08-12T09:34:26.467Z,95587.31
2022-08-12T09:36:57.850Z,95580.44
2022-08-12T09:40:04.206Z,95584.44
2022-08-12T09:43:15.393Z,95576.41
2022-08-12T09:46:11.676Z,95578.72
2022-08-12T09:48:56.315Z,95570.47
2022-08-12T09:51:44.333Z,95573.81
2022-08-12T09:54:33.123Z,95577.13
2022-08-12T09:58:07.687Z,95577.97
2022-08-12T10:00:29.238Z,95568.50
2022-08-12T10:03:32.314Z,95572.16
2022-08-12T10:06:20.362Z,95569.72
2022-08-12T10:09:16.215Z,95564.97
2022-08-12T10:12:14.237Z,95568.63
2022-08-12T10:15:08.247Z,95574.88
2022-08-12T10:18:09.248Z,95572.22
2022-08-12T10:20:56.242Z,95557.44
2022-08-12T10:23:39.426Z,95566.00
2022-08-12T10:26:47.225Z,95557.38
2022-08-12T10:30:40.626Z,95562.44
2022-08-12T10:32:47.141Z,95560.59
2022-08-12T10:35:38.255Z,95562.19
2022-08-12T10:38:34.639Z,95549.16
2022-08-12T10:41:58.567Z,95541.13
2022-08-12T10:44:38.249Z,95539.13
2022-08-12T10:47:26.310Z,95525.97
2022-08-12T10:50:36.023Z,95527.66
2022-08-12T10:53:19.404Z,95532.72
2022-08-12T10:56:06.250Z,95525.84
2022-08-12T10:58:39.374Z,95524.06
2022-08-12T11:04:17.079Z,95511.06
2022-08-12T11:04:35.500Z,95517.56
2022-08-12T11:08:34.023Z,95512.22
2022-08-12T11:10:20.425Z,95514.81
2022-08-12T11:13:09.256Z,95514.81
2022-08-12T11:16:03.478Z,95520.84
2022-08-12T11:18:55.450Z,95522.38
2022-08-12T11:21:56.094Z,95521.69
2022-08-12T11:24:37.274Z,95515.34
2022-08-12T11:27:19.264Z,95514.66
2022-08-12T11:30:01.831Z,95510.44
2022-08-12T11:32:53.273Z,95508.69
2022-08-12T11:35:27.917Z,95508.69
2022-08-12T11:38:20.325Z,95503.53
2022-08-12T11:41:00.257Z,95502.72
2022-08-12T11:43:58.334Z,95505.41
2022-08-12T11:46:54.247Z,95501.94
2022-08-12T11:49:41.262Z,95500.28
2022-08-12T11:52:51.314Z,95495.91
2022-08-12T11:55:27.564Z,95488.09
2022-08-12T11:58:33.913Z,95504.53
2022-08-12T12:02:02.814Z,95499.50
2022-08-12T12:04:03.323Z,95498.56
2022-08-12T12:06:53.240Z,95497.75
2022-08-12T12:09:26.843Z,95498.56
2022-08-12T12:12:13.260Z,95497.06
2022-08-12T12:14:54.256Z,95497.97
2022-08-12T12:17:44.263Z,95499.81
2022-08-12T12:20:26.092Z,95498.16
2022-08-12T12:23:28.883Z,95503.41
2022-08-12T12:26:35.224Z,95496.69
2022-08-12T12:30:18.661Z,95486.44
2022-08-12T12:32:11.703Z,95482.19
2022-08-12T12:35:14.592Z,95476.97
2022-08-12T12:38:12.389Z,95476.13
2022-08-12T12:40:53.330Z,95483.91
2022-08-12T12:43:42.649Z,95482.91
2022-08-12T12:46:37.311Z,95490.56
2022-08-12T12:49:26.315Z,95489.50
2022-08-12T12:52:19.822Z,95489.34
2022-08-12T12:55:08.322Z,95481.59
2022-08-12T12:58:00.106Z,95485.06
2022-08-12T13:00:51.381Z,95476.50
2022-08-12T13:03:24.430Z,95470.44
2022-08-12T13:06:11.331Z,95460.22
2022-08-12T13:08:44.729Z,95466.94
2022-08-12T13:11:41.592Z,95454.78
2022-08-12T13:14:29.118Z,95451.34
2022-08-12T13:17:19.809Z,95458.97
2022-08-12T13:19:54.624Z,95456.38
2022-08-12T13:22:42.437Z,95459.06
2022-08-12T13:25:20.023Z,95461.66
2022-08-12T13:28:10.323Z,95447.03
2022-08-12T13:30:52.337Z,95444.44
2022-08-12T13:34:29.671Z,95449.63
2022-08-12T13:36:40.336Z,95447.03
2022-08-12T13:39:35.379Z,95458.22
2022-08-12T13:42:29.336Z,95463.56
2022-08-12T13:45:23.359Z,95457.69
2022-08-12T13:48:19.771Z,95458.69
2022-08-12T13:51:13.380Z,95458.59
2022-08-12T13:54:05.000Z,95456.84
2022-08-12T13:56:40.432Z,95452.56
2022-08-12T13:59:28.358Z,95463.81
2022-08-12T14:02:01.491Z,95455.06
2022-08-12T14:04:56.591Z,95459.38
2022-08-12T14:07:48.767Z,95463.03
2022-08-12T14:10:50.572Z,95452.88
2022-08-12T14:14:03.828Z,95459.75
2022-08-12T14:16:52.034Z,95447.75
2022-08-12T14:19:48.675Z,95453.88
2022-08-12T14:22:26.887Z,95455.66
2022-08-12T14:25:13.385Z,95451.34
2022-08-12T14:28:03.320Z,95447.91
2022-08-12T14:31:03.404Z,95451.34
2022-08-12T14:33:44.342Z,95440.81
2022-08-12T14:36:32.394Z,95439.88
2022-08-12T14:39:05.991Z,95432.00
2022-08-12T14:41:57.347Z,95426.81
2022-08-12T14:44:59.000Z,95428.47
2022-08-12T14:47:37.415Z,95435.28
2022-08-12T14:50:37.754Z,95427.41
2022-08-12T15:00:00.188Z,95444.13
2022-08-12T15:02:54.437Z,95436.25
2022-08-12T15:06:05.315Z,95438.09
2022-08-12T15:09:01.455Z,95431.38
2022-08-12T15:11:54.292Z,95428.00
2022-08-12T15:14:30.431Z,95438.34
2022-08-12T15:17:37.474Z,95433.22
2022-08-12T15:20:37.523Z,95438.41
2022-08-12T15:23:29.333Z,95436.88
2022-08-12T15:26:28.310Z,95438.88
2022-08-12T15:29:25.420Z,95440.81
2022-08-12T15:32:20.270Z,95434.91
2022-08-12T15:35:26.436Z,95435.75
2022-08-12T15:38:19.169Z,95423.69
2022-08-12T15:41:02.409Z,95425.44
2022-08-12T15:44:16.854Z,95425.44
2022-08-12T15:46:49.425Z,95421.91
2022-08-12T15:49:59.922Z,95413.34
2022-08-12T15:52:54.430Z,95411.69
2022-08-12T15:55:49.427Z,95410.00
2022-08-12T15:58:47.435Z,95416.88
2022-08-12T16:01:41.506Z,95406.50
2022-08-12T16:04:28.437Z,95406.72
2022-08-12T16:07:09.225Z,95410.31
2022-08-12T16:10:05.867Z,95415.66
2022-08-12T16:12:57.438Z,95408.88
2022-08-12T16:15:42.137Z,95412.41
2022-08-12T16:18:30.472Z,95406.50
2022-08-12T16:21:03.533Z,95413.47
2022-08-12T16:23:57.992Z,95413.53
2022-08-12T16:26:35.065Z,95405.81
2022-08-12T16:29:25.466Z,95393.81
2022-08-12T16:31:59.002Z,95398.19
2022-08-12T16:34:54.853Z,95382.75
2022-08-12T16:38:24.371Z,95381.16
2022-08-12T16:40:49.462Z,95383.94
2022-08-12T16:43:40.462Z,95387.53
2022-08-12T16:46:34.462Z,95379.84
2022-08-12T16:49:21.469Z,95382.59
2022-08-12T16:51:58.098Z,95378.34
2022-08-12T16:54:45.472Z,95376.75
2022-08-12T16:57:18.899Z,95373.31
2022-08-12T17:00:24.474Z,95364.94
2022-08-12T17:02:58.386Z,95367.59
2022-08-12T17:05:46.462Z,95366.00
2022-08-12T17:08:29.133Z,95362.63
2022-08-12T17:11:17.941Z,95363.53
2022-08-12T17:13:58.477Z,95368.06
2022-08-12T17:16:46.455Z,95364.69
2022-08-12T17:19:19.654Z,95365.69
2022-08-12T17:22:12.480Z,95359.72
2022-08-12T17:24:55.694Z,95363.31
2022-08-12T17:27:57.263Z,95363.38
2022-08-12T17:30:30.563Z,95366.19
2022-08-12T17:33:24.684Z,95359.41
2022-08-12T17:35:58.651Z,95365.53
2022-08-12T17:38:45.496Z,95361.41
2022-08-12T17:41:56.428Z,95359.78
2022-08-12T17:44:31.468Z,95358.16
2022-08-12T17:47:04.586Z,95359.91
2022-08-12T17:50:02.191Z,95356.56
2022-08-12T17:52:40.390Z,95359.25
2022-08-12T17:55:44.462Z,95350.59
2022-08-12T17:58:38.515Z,95348.16
2022-08-12T18:01:28.891Z,95354.41
2022-08-12T18:04:21.743Z,95352.81
2022-08-12T18:07:09.501Z,95357.22
2022-08-12T18:09:43.578Z,95358.06
2022-08-12T18:12:53.370Z,95350.44
2022-08-12T18:16:05.286Z,95348.75
2022-08-12T18:18:41.960Z,95355.00
2022-08-12T18:21:22.508Z,95357.72
2022-08-12T18:24:21.949Z,95359.56
2022-08-12T18:27:30.146Z,95357.94
2022-08-12T18:30:12.505Z,95366.88
2022-08-12T18:32:58.631Z,95360.91
2022-08-12T18:35:53.475Z,95368.84
2022-08-12T18:38:29.636Z,95366.34
2022-08-12T18:41:35.523Z,95372.59
2022-08-12T18:44:22.539Z,95365.88
2022-08-12T18:47:16.548Z,95359.19
2022-08-12T18:49:49.838Z,95361.16
2022-08-12T18:52:40.923Z,95365.75
2022-08-12T18:55:15.033Z,95369.38
2022-08-12T18:58:08.601Z,95366.16
2022-08-12T19:00:43.681Z,95365.50
2022-08-12T19:03:39.861Z,95361.44
2022-08-12T19:06:15.980Z,95359.84
2022-08-12T19:09:04.513Z,95356.63
2022-08-12T19:12:02.456Z,95358.44
2022-08-12T19:14:51.546Z,95355.19
2022-08-12T19:17:56.839Z,95358.91
2022-08-12T19:20:50.741Z,95356.50
2022-08-12T19:23:34.922Z,95354.91
2022-08-12T19:26:26.972Z,95355.09
2022-08-12T19:29:01.614Z,95360.50
2022-08-12T19:31:58.245Z,95362.34
2022-08-12T19:38:08.578Z,95363.47
2022-08-12T19:40:46.219Z,95362.69
2022-08-12T19:43:59.239Z,95354.97
2022-08-12T19:46:34.762Z,95352.41
2022-08-12T19:49:22.582Z,95361.06
2022-08-12T19:52:02.570Z,95357.69
2022-08-12T19:54:56.426Z,95356.84
2022-08-12T19:57:30.648Z,95358.56
2022-08-12T20:00:23.564Z,95356.91
2022-08-12T20:03:00.390Z,95367.25
2022-08-12T20:06:06.584Z,95361.25
2022-08-12T20:08:47.916Z,95361.31
2022-08-12T20:12:14.441Z,95356.97
2022-08-12T20:14:45.584Z,95356.13
2022-08-12T20:17:50.825Z,95352.69
2022-08-12T20:20:45.548Z,95351.09
2022-08-12T20:23:50.446Z,95342.41
2022-08-12T20:26:27.652Z,95350.16
2022-08-12T20:29:16.553Z,95338.13
2022-08-12T20:31:52.481Z,95343.22
2022-08-12T20:34:40.587Z,95341.47
2022-08-12T20:37:17.665Z,95341.41
2022-08-12T20:40:08.669Z,95350.03
2022-08-12T20:42:43.809Z,95353.38
2022-08-12T20:45:44.769Z,95341.31
2022-08-12T20:48:25.234Z,95346.41
2022-08-12T20:51:20.583Z,95341.22
2022-08-12T20:54:01.593Z,95348.03
2022-08-12T20:56:56.582Z,95342.03
2022-08-12T20:59:50.591Z,95348.91
2022-08-12T21:02:45.045Z,95351.41
2022-08-12T21:06:12.233Z,95348.00
2022-08-12T21:08:49.621Z,95338.47
2022-08-12T21:11:43.598Z,95341.84
2022-08-12T21:14:39.801Z,95342.66
2022-08-12T21:18:08.230Z,95340.84
2022-08-12T21:20:48.612Z,95346.88
2022-08-12T21:23:22.773Z,95340.78
2022-08-12T21:26:11.422Z,95335.63
2022-08-12T21:28:58.228Z,95332.97
2022-08-12T21:32:40.228Z,95336.41
2022-08-12T21:34:44.263Z,95340.66
2022-08-12T21:37:37.420Z,95338.22
2022-08-12T21:40:13.281Z,95337.28
2022-08-12T21:43:00.618Z,95341.63
2022-08-12T21:46:00.608Z,95327.00
2022-08-12T21:48:57.551Z,95332.31
2022-08-12T21:51:55.618Z,95328.94
2022-08-12T21:54:50.692Z,95335.97
2022-08-12T21:57:54.866Z,95328.25
2022-08-12T22:00:49.677Z,95326.59
2022-08-12T22:04:10.916Z,95328.41
2022-08-12T22:06:47.628Z,95323.34
2022-08-12T22:09:29.632Z,95323.34
2022-08-12T22:12:39.808Z,95320.91
2022-08-12T22:15:26.642Z,95313.19
2022-08-12T22:18:11.621Z,95314.25
2022-08-12T22:21:11.478Z,95318.78
2022-08-12T22:24:05.091Z,95313.78
2022-08-12T22:26:38.720Z,95313.97
2022-08-12T22:29:47.633Z,95308.13
2022-08-12T22:32:29.984Z,95311.72
2022-08-12T22:35:47.230Z,95300.66
2022-08-12T22:38:43.673Z,95307.72
2022-08-12T22:41:36.119Z,95306.16
2022-08-12T22:44:52.557Z,95301.13
2022-08-12T22:47:49.719Z,95299.63
2022-08-12T22:50:35.655Z,95291.22
2022-08-12T22:53:22.658Z,95294.00
2022-08-12T22:56:00.722Z,95290.69
2022-08-12T22:59:03.675Z,95285.63
2022-08-12T23:02:02.226Z,95285.78
2022-08-12T23:04:49.677Z,95287.63
2022-08-12T23:07:24.282Z,95291.19
2022-08-12T23:10:11.657Z,95299.91
2022-08-12T23:13:05.281Z,95292.16
2022-08-12T23:15:54.786Z,95287.88
2022-08-12T23:18:33.399Z,95292.22
2022-08-12T23:21:25.669Z,95283.63
2022-08-12T23:24:17.062Z,95284.50
2022-08-12T23:27:23.677Z,95286.22
2022-08-12T23:30:18.345Z,95280.13
2022-08-12T23:33:20.026Z,95268.06
2022-08-12T23:36:39.066Z,95268.88
2022-08-12T23:40:13.111Z,95261.13
2022-08-12T23:42:16.539Z,95267.97
2022-08-12T23:44:59.703Z,95263.63
2022-08-12T23:47:38.394Z,95267.84
2022-08-12T23:50:34.165Z,95260.09
2022-08-12T23:53:22.844Z,95266.03
2022-08-12T23:56:09.704Z,95266.81
2022-08-12T23:58:49.647Z,95263.34
